createdAt,value
2019-02-05T00:00:04.080Z,5.70
2019-02-05T00:01:04.071Z,5.00
2019-02-05T00:02:04.133Z,4.80
2019-02-05T00:03:04.045Z,5.60
2019-02-05T00:04:04.035Z,6.00
2019-02-05T00:05:04.036Z,4.80
2019-02-05T00:06:04.014Z,3.30
2019-02-05T00:07:03.999Z,4.90
2019-02-05T00:08:03.988Z,4.40
2019-02-05T00:09:03.975Z,6.00
2019-02-05T00:10:03.970Z,6.70
2019-02-05T00:11:03.970Z,6.70
2019-02-05T00:12:03.999Z,3.10
2019-02-05T00:13:03.929Z,7.20
2019-02-05T00:14:03.919Z,4.70
2019-02-05T00:15:03.905Z,5.00
2019-02-05T00:16:03.909Z,4.70
2019-02-05T00:17:03.882Z,5.40
2019-02-05T00:18:03.872Z,5.10
2019-02-05T00:19:03.859Z,4.50
2019-02-05T00:20:03.849Z,3.60
2019-02-05T00:21:03.836Z,3.90
2019-02-05T00:22:03.825Z,3.20
2019-02-05T00:23:03.812Z,6.60
2019-02-05T00:24:03.801Z,4.30
2019-02-05T00:25:03.787Z,6.00
2019-02-05T00:26:06.420Z,7.80
2019-02-05T00:27:03.764Z,5.40
2019-02-05T00:28:03.754Z,7.10
2019-02-05T00:29:03.741Z,8.50
2019-02-05T00:30:03.730Z,7.40
2019-02-05T00:31:03.716Z,5.30
2019-02-05T00:32:03.705Z,8.00
2019-02-05T00:33:03.693Z,6.40
2019-02-05T00:34:03.682Z,4.40
2019-02-05T00:35:03.669Z,7.30
2019-02-05T00:36:03.657Z,6.70
2019-02-05T00:37:03.646Z,6.40
2019-02-05T00:38:03.634Z,7.50
2019-02-05T00:39:03.619Z,8.50
2019-02-05T00:40:03.613Z,8.10
2019-02-05T00:41:03.597Z,9.00
2019-02-05T00:42:03.586Z,9.20
2019-02-05T00:43:03.572Z,7.10
2019-02-05T00:44:03.560Z,7.70
2019-02-05T00:45:03.549Z,6.90
2019-02-05T00:46:03.537Z,8.30
2019-02-05T00:47:03.523Z,7.40
2019-02-05T00:48:03.513Z,6.40
2019-02-05T00:49:03.504Z,7.40
2019-02-05T00:50:03.489Z,5.20
2019-02-05T00:51:03.475Z,4.50
2019-02-05T00:52:03.463Z,8.60
2019-02-05T00:53:03.449Z,6.40
2019-02-05T00:54:03.441Z,7.10
2019-02-05T00:55:03.426Z,5.50
2019-02-05T00:56:03.417Z,8.90
2019-02-05T00:57:03.401Z,8.20
2019-02-05T00:58:03.401Z,6.50
2019-02-05T00:59:03.377Z,6.60
2019-02-05T01:00:03.375Z,6.10
2019-02-05T01:01:03.352Z,7.10
2019-02-05T01:02:03.342Z,9.30
2019-02-05T01:03:03.328Z,11.00
2019-02-05T01:04:03.319Z,8.60
2019-02-05T01:05:03.306Z,9.90
2019-02-05T01:06:03.315Z,8.80
2019-02-05T01:07:03.279Z,10.30
2019-02-05T01:08:03.269Z,10.60
2019-02-05T01:09:03.259Z,6.70
2019-02-05T01:10:03.244Z,10.80
2019-02-05T01:11:03.230Z,6.60
2019-02-05T01:12:03.221Z,10.00
2019-02-05T01:13:03.205Z,5.50
2019-02-05T01:14:03.196Z,9.00
2019-02-05T01:15:03.189Z,9.60
2019-02-05T01:16:03.170Z,11.50
2019-02-05T01:17:03.156Z,8.40
2019-02-05T01:18:03.147Z,10.30
2019-02-05T01:19:03.132Z,11.00
2019-02-05T01:20:03.122Z,12.60
2019-02-05T01:21:03.107Z,10.30
2019-02-05T01:22:03.100Z,11.60
2019-02-05T01:23:03.083Z,9.80
2019-02-05T01:24:03.074Z,13.00
2019-02-05T01:25:03.058Z,9.50
2019-02-05T01:26:03.051Z,10.80
2019-02-05T01:27:03.049Z,11.40
2019-02-05T01:28:03.023Z,10.20
2019-02-05T01:29:03.009Z,5.20
2019-02-05T01:30:02.998Z,11.90
2019-02-05T01:31:02.997Z,9.20
2019-02-05T01:32:02.973Z,9.10
2019-02-05T01:33:02.959Z,13.50
2019-02-05T01:34:02.949Z,12.70
2019-02-05T01:35:02.959Z,12.20
2019-02-05T01:36:02.924Z,11.90
2019-02-05T01:37:02.909Z,13.20
2019-02-05T01:38:02.900Z,12.90
2019-02-05T01:39:02.885Z,13.80
2019-02-05T01:40:02.875Z,13.00
2019-02-05T01:41:02.860Z,12.00
2019-02-05T01:42:02.853Z,14.20
2019-02-05T01:43:02.836Z,8.60
2019-02-05T01:44:02.826Z,12.10
2019-02-05T01:45:02.811Z,9.70
2019-02-05T01:46:02.801Z,6.50
2019-02-05T01:47:02.787Z,10.00
2019-02-05T01:48:02.776Z,10.90
2019-02-05T01:49:02.764Z,11.00
2019-02-05T01:50:02.753Z,10.50
2019-02-05T01:51:02.737Z,13.30
2019-02-05T01:52:02.727Z,9.60
2019-02-05T01:53:02.713Z,13.10
2019-02-05T01:54:02.703Z,15.80
2019-02-05T01:55:02.691Z,13.50
2019-02-05T01:56:02.680Z,12.80
2019-02-05T01:57:02.664Z,11.20
2019-02-05T01:58:02.655Z,6.50
2019-02-05T01:59:02.639Z,11.10
2019-02-05T02:00:02.629Z,13.40
2019-02-05T02:01:02.614Z,10.70
2019-02-05T02:02:02.605Z,9.40
2019-02-05T02:03:02.597Z,12.00
2019-02-05T02:04:02.580Z,11.30
2019-02-05T02:05:02.565Z,11.30
2019-02-05T02:06:02.556Z,11.70
2019-02-05T02:07:02.541Z,15.40
2019-02-05T02:08:02.531Z,15.20
2019-02-05T02:09:02.517Z,10.00
2019-02-05T02:10:02.508Z,8.80
2019-02-05T02:11:02.492Z,15.60
2019-02-05T02:12:02.482Z,9.80
2019-02-05T02:13:02.472Z,12.20
2019-02-05T02:14:02.457Z,14.70
2019-02-05T02:15:02.443Z,15.40
2019-02-05T02:16:02.432Z,15.60
2019-02-05T02:17:02.417Z,13.20
2019-02-05T02:18:02.411Z,14.50
2019-02-05T02:19:02.394Z,14.80
2019-02-05T02:20:02.385Z,16.50
2019-02-05T02:21:02.371Z,14.40
2019-02-05T02:22:02.359Z,13.70
2019-02-05T02:23:02.345Z,13.00
2019-02-05T02:24:02.334Z,16.90
2019-02-05T02:25:02.319Z,13.60
2019-02-05T02:26:02.310Z,15.80
2019-02-05T02:27:02.297Z,15.20
2019-02-05T02:28:02.285Z,11.80
2019-02-05T02:29:02.271Z,9.00
2019-02-05T02:30:02.270Z,9.50
2019-02-05T02:31:02.248Z,12.60
2019-02-05T02:32:02.251Z,13.40
2019-02-05T02:33:02.223Z,10.60
2019-02-05T02:34:02.213Z,12.90
2019-02-05T02:35:02.200Z,13.40
2019-02-05T02:36:02.189Z,14.90
2019-02-05T02:37:02.173Z,12.90
2019-02-05T02:38:02.167Z,14.40
2019-02-05T02:39:02.148Z,8.60
2019-02-05T02:40:02.151Z,10.50
2019-02-05T02:41:02.129Z,13.60
2019-02-05T02:42:02.114Z,16.60
2019-02-05T02:43:02.099Z,14.90
2019-02-05T02:44:02.089Z,11.60
2019-02-05T02:45:02.132Z,11.20
2019-02-05T02:46:02.316Z,9.30
2019-02-05T02:47:02.055Z,16.00
2019-02-05T02:48:02.050Z,8.50
2019-02-05T02:49:02.032Z,10.60
2019-02-05T02:50:02.017Z,15.00
2019-02-05T02:51:02.003Z,15.00
2019-02-05T02:52:01.998Z,12.00
2019-02-05T02:53:01.978Z,15.20
2019-02-05T02:54:01.968Z,15.60
2019-02-05T02:55:01.959Z,16.20
2019-02-05T02:56:01.952Z,14.90
2019-02-05T02:57:04.863Z,12.30
2019-02-05T02:58:01.920Z,17.30
2019-02-05T02:59:01.903Z,16.80
2019-02-05T03:00:01.893Z,18.90
2019-02-05T03:01:01.881Z,17.10
2019-02-05T03:02:01.871Z,16.10
2019-02-05T03:03:01.856Z,15.90
2019-02-05T03:04:01.844Z,16.50
2019-02-05T03:05:01.834Z,17.50
2019-02-05T03:06:01.819Z,13.70
2019-02-05T03:07:01.806Z,11.40
2019-02-05T03:08:01.794Z,16.80
2019-02-05T03:09:01.783Z,16.30
2019-02-05T03:10:01.775Z,14.80
2019-02-05T03:11:01.758Z,9.80
2019-02-05T03:12:01.749Z,19.00
2019-02-05T03:13:01.740Z,18.10
2019-02-05T03:14:01.723Z,12.00
2019-02-05T03:15:01.709Z,14.20
2019-02-05T03:16:01.744Z,16.10
2019-02-05T03:17:01.697Z,14.60
2019-02-05T03:18:01.674Z,18.60
2019-02-05T03:19:01.662Z,12.80
2019-02-05T03:20:01.649Z,15.70
2019-02-05T03:21:01.636Z,16.40
2019-02-05T03:22:01.627Z,15.70
2019-02-05T03:23:01.613Z,17.90
2019-02-05T03:24:01.602Z,18.00
2019-02-05T03:25:01.588Z,19.70
2019-02-05T03:26:01.579Z,14.70
2019-02-05T03:27:01.564Z,18.40
2019-02-05T03:28:01.557Z,19.70
2019-02-05T03:29:01.540Z,12.20
2019-02-05T03:30:01.535Z,15.90
2019-02-05T03:31:01.520Z,20.10
2019-02-05T03:32:01.504Z,17.50
2019-02-05T03:33:01.494Z,18.00
2019-02-05T03:34:01.479Z,16.90
2019-02-05T03:35:01.493Z,14.90
2019-02-05T03:36:01.457Z,20.40
2019-02-05T03:37:01.454Z,19.60
2019-02-05T03:38:01.432Z,14.90
2019-02-05T03:39:01.421Z,17.70
2019-02-05T03:40:01.407Z,14.90
2019-02-05T03:41:01.397Z,19.20
2019-02-05T03:42:01.383Z,19.30
2019-02-05T03:43:01.375Z,21.30
2019-02-05T03:44:01.359Z,20.30
2019-02-05T03:45:01.359Z,20.10
2019-02-05T03:46:01.336Z,18.10
2019-02-05T03:47:01.326Z,19.50
2019-02-05T03:48:01.311Z,21.60
2019-02-05T03:49:01.308Z,21.40
2019-02-05T03:50:01.288Z,21.90
2019-02-05T03:51:01.279Z,21.30
2019-02-05T03:52:01.265Z,21.30
2019-02-05T03:53:01.256Z,23.10
2019-02-05T03:54:01.242Z,21.70
2019-02-05T03:55:01.248Z,22.30
2019-02-05T03:56:01.303Z,20.00
2019-02-05T03:57:01.220Z,20.60
2019-02-05T03:58:01.195Z,21.20
2019-02-05T03:59:01.191Z,22.30
2019-02-05T04:00:01.212Z,22.00
2019-02-05T04:01:01.163Z,21.90
2019-02-05T04:02:01.159Z,21.60
2019-02-05T04:03:01.141Z,22.10
2019-02-05T04:04:01.127Z,23.00
2019-02-05T04:05:01.116Z,21.70
2019-02-05T04:06:01.104Z,21.20
2019-02-05T04:07:01.095Z,20.20
2019-02-05T04:08:01.079Z,22.50
2019-02-05T04:09:01.074Z,17.10
2019-02-05T04:10:01.058Z,22.40
2019-02-05T04:11:01.048Z,21.80
2019-02-05T04:12:01.632Z,22.50
2019-02-05T04:13:01.025Z,18.90
2019-02-05T04:14:01.011Z,20.60
2019-02-05T04:15:01.257Z,18.30
2019-02-05T04:16:00.988Z,20.50
2019-02-05T04:17:00.985Z,16.80
2019-02-05T04:18:00.964Z,23.30
2019-02-05T04:19:00.957Z,22.90
2019-02-05T04:20:00.940Z,21.20
2019-02-05T04:21:00.934Z,18.10
2019-02-05T04:22:00.917Z,19.50
2019-02-05T04:23:00.909Z,24.80
2019-02-05T04:24:00.894Z,25.00
2019-02-05T04:25:00.884Z,21.70
2019-02-05T04:26:00.872Z,25.20
2019-02-05T04:27:00.863Z,25.70
2019-02-05T04:28:00.846Z,20.30
2019-02-05T04:29:00.847Z,22.90
2019-02-05T04:30:00.823Z,26.10
2019-02-05T04:31:00.813Z,13.80
2019-02-05T04:32:00.800Z,27.70
2019-02-05T04:33:00.895Z,26.80
2019-02-05T04:34:00.775Z,26.20
2019-02-05T04:35:00.820Z,27.40
2019-02-05T04:36:00.751Z,28.30
2019-02-05T04:37:00.742Z,29.20
2019-02-05T04:38:00.728Z,28.00
2019-02-05T04:39:00.718Z,26.10
2019-02-05T04:40:00.703Z,23.30
2019-02-05T04:41:00.794Z,23.50
2019-02-05T04:42:00.680Z,30.50
2019-02-05T04:43:00.672Z,28.80
2019-02-05T04:44:00.659Z,29.60
2019-02-05T04:45:00.948Z,32.70
2019-02-05T04:46:00.633Z,32.40
2019-02-05T04:47:00.627Z,32.60
2019-02-05T04:48:00.609Z,32.00
2019-02-05T04:49:00.599Z,30.50
2019-02-05T04:50:00.631Z,31.90
2019-02-05T04:51:00.579Z,19.50
2019-02-05T04:52:00.562Z,28.70
2019-02-05T04:53:00.559Z,34.10
2019-02-05T04:54:00.539Z,30.50
2019-02-05T04:55:00.529Z,26.00
2019-02-05T04:56:00.517Z,28.30
2019-02-05T04:57:00.506Z,29.20
2019-02-05T04:58:01.642Z,33.00
2019-02-05T04:59:00.482Z,33.90
2019-02-05T05:00:00.501Z,35.30
2019-02-05T05:01:00.458Z,33.50
2019-02-05T05:02:00.444Z,34.30
2019-02-05T05:03:00.437Z,34.90
2019-02-05T05:04:00.421Z,35.40
2019-02-05T05:05:00.412Z,40.90
2019-02-05T05:06:00.397Z,25.20
2019-02-05T05:07:00.389Z,27.60
2019-02-05T05:08:00.377Z,32.90
2019-02-05T05:09:00.364Z,37.30
2019-02-05T05:10:00.501Z,36.50
2019-02-05T05:11:00.341Z,38.80
2019-02-05T05:12:00.327Z,37.40
2019-02-05T05:13:00.317Z,38.80
2019-02-05T05:14:00.303Z,34.60
2019-02-05T05:15:00.755Z,39.20
2019-02-05T05:16:00.279Z,30.80
2019-02-05T05:17:00.269Z,37.10
2019-02-05T05:18:00.255Z,40.90
2019-02-05T05:19:00.252Z,39.10
2019-02-05T05:20:00.483Z,38.20
2019-02-05T05:21:00.222Z,34.20
2019-02-05T05:22:00.209Z,25.10
2019-02-05T05:23:00.200Z,40.40
2019-02-05T05:24:00.215Z,30.60
2019-02-05T05:25:00.340Z,39.80
2019-02-05T05:26:00.164Z,37.90
2019-02-05T05:27:00.157Z,32.30
2019-02-05T05:28:09.678Z,38.10
2019-02-05T05:29:00.134Z,37.10
2019-02-05T05:30:00.345Z,38.20
2019-02-05T05:31:00.117Z,39.40
2019-02-05T05:32:00.094Z,39.70
2019-02-05T05:33:00.083Z,33.30
2019-02-05T05:34:00.068Z,35.90
2019-02-05T05:35:00.099Z,33.80
2019-02-05T05:36:00.045Z,33.00
2019-02-05T05:37:00.047Z,32.40
2019-02-05T05:38:00.022Z,36.80
2019-02-05T05:39:00.013Z,42.20
2019-02-05T05:39:59.998Z,38.50
2019-02-05T05:40:59.990Z,40.70
2019-02-05T05:41:59.978Z,43.70
2019-02-05T05:42:59.986Z,42.20
2019-02-05T05:43:59.954Z,27.30
2019-02-05T05:44:59.942Z,34.40
2019-02-05T05:46:00.231Z,33.90
2019-02-05T05:46:59.922Z,37.30
2019-02-05T05:47:59.910Z,37.30
2019-02-05T05:48:59.895Z,39.20
2019-02-05T05:49:59.885Z,42.60
2019-02-05T05:50:59.875Z,42.90
2019-02-05T05:51:59.862Z,36.00
2019-02-05T05:52:59.848Z,38.30
2019-02-05T05:53:59.835Z,37.20
2019-02-05T05:54:59.832Z,40.50
2019-02-05T05:55:59.814Z,34.70
2019-02-05T05:56:59.803Z,44.20
2019-02-05T05:57:59.789Z,41.30
2019-02-05T05:58:59.779Z,43.20
2019-02-05T05:59:59.767Z,44.30
2019-02-05T06:00:59.755Z,44.40
2019-02-05T06:01:59.741Z,42.30
2019-02-05T06:02:59.733Z,43.10
2019-02-05T06:03:59.720Z,44.30
2019-02-05T06:04:59.710Z,40.50
2019-02-05T06:05:59.698Z,43.10
2019-02-05T06:06:59.688Z,38.90
2019-02-05T06:07:59.672Z,29.50
2019-02-05T06:08:59.666Z,35.10
2019-02-05T06:09:59.652Z,37.50
2019-02-05T06:10:59.753Z,39.90
2019-02-05T06:11:59.630Z,42.60
2019-02-05T06:12:59.699Z,40.10
2019-02-05T06:13:59.605Z,40.80
2019-02-05T06:14:59.623Z,43.80
2019-02-05T06:15:59.585Z,38.90
2019-02-05T06:16:59.577Z,43.50
2019-02-05T06:17:59.560Z,41.30
2019-02-05T06:18:59.554Z,44.30
2019-02-05T06:19:59.537Z,41.10
2019-02-05T06:20:59.530Z,39.80
2019-02-05T06:21:59.593Z,42.50
2019-02-05T06:22:59.510Z,39.40
2019-02-05T06:23:59.493Z,37.60
2019-02-05T06:24:59.484Z,38.30
2019-02-05T06:25:59.471Z,40.40
2019-02-05T06:26:59.463Z,37.50
2019-02-05T06:27:59.452Z,35.20
2019-02-05T06:28:59.440Z,40.10
2019-02-05T06:29:59.427Z,43.70
2019-02-05T06:30:59.426Z,30.30
2019-02-05T06:31:59.406Z,36.50
2019-02-05T06:32:59.408Z,32.50
2019-02-05T06:33:59.386Z,37.00
2019-02-05T06:34:59.374Z,37.10
2019-02-05T06:35:59.360Z,32.00
2019-02-05T06:36:59.351Z,33.80
2019-02-05T06:37:59.357Z,31.60
2019-02-05T06:38:59.344Z,26.10
2019-02-05T06:39:59.315Z,26.90
2019-02-05T06:40:59.317Z,34.30
2019-02-05T06:41:59.307Z,30.10
2019-02-05T06:42:59.283Z,34.90
2019-02-05T06:43:59.269Z,37.70
2019-02-05T06:44:59.263Z,30.00
2019-02-05T06:45:59.249Z,27.30
2019-02-05T06:46:59.237Z,34.20
2019-02-05T06:47:59.223Z,40.60
2019-02-05T06:48:59.215Z,34.00
2019-02-05T06:49:59.201Z,35.70
2019-02-05T06:50:59.192Z,35.40
2019-02-05T06:51:59.177Z,39.30
2019-02-05T06:52:59.169Z,39.70
2019-02-05T06:53:59.156Z,43.30
2019-02-05T06:54:59.145Z,37.60
2019-02-05T06:55:59.131Z,18.00
2019-02-05T06:56:59.122Z,34.50
2019-02-05T06:57:59.111Z,41.80
2019-02-05T06:58:59.099Z,42.80
2019-02-05T06:59:59.091Z,31.10
2019-02-05T07:00:59.085Z,35.10
2019-02-05T07:01:59.062Z,35.50
2019-02-05T07:02:59.054Z,45.20
2019-02-05T07:03:59.038Z,39.50
2019-02-05T07:04:59.029Z,44.60
2019-02-05T07:05:59.020Z,42.00
2019-02-05T07:06:59.009Z,43.20
2019-02-05T07:07:58.997Z,39.30
2019-02-05T07:08:58.985Z,36.70
2019-02-05T07:09:58.981Z,40.50
2019-02-05T07:10:58.964Z,28.60
2019-02-05T07:11:58.951Z,32.90
2019-02-05T07:12:59.053Z,41.90
2019-02-05T07:13:58.939Z,44.40
2019-02-05T07:14:58.915Z,45.20
2019-02-05T07:15:58.905Z,44.90
2019-02-05T07:16:58.892Z,46.60
2019-02-05T07:17:58.886Z,47.20
2019-02-05T07:18:58.869Z,43.80
2019-02-05T07:19:58.861Z,42.20
2019-02-05T07:20:58.846Z,45.50
2019-02-05T07:21:58.841Z,47.30
2019-02-05T07:22:58.827Z,44.40
2019-02-05T07:23:58.817Z,44.80
2019-02-05T07:24:58.801Z,44.90
2019-02-05T07:25:58.793Z,49.10
2019-02-05T07:26:58.781Z,45.80
2019-02-05T07:27:58.770Z,45.70
2019-02-05T07:29:02.050Z,44.90
2019-02-05T07:29:58.756Z,42.80
2019-02-05T07:30:58.734Z,36.60
2019-02-05T07:31:58.728Z,41.90
2019-02-05T07:32:58.712Z,46.70
2019-02-05T07:33:59.005Z,39.60
2019-02-05T07:34:58.696Z,42.80
2019-02-05T07:35:58.680Z,44.60
2019-02-05T07:36:58.667Z,42.20
2019-02-05T07:37:58.659Z,34.80
2019-02-05T07:38:58.895Z,37.40
2019-02-05T07:39:58.636Z,43.40
2019-02-05T07:40:58.626Z,43.30
2019-02-05T07:41:58.613Z,40.80
2019-02-05T07:42:58.602Z,41.30
2019-02-05T07:43:58.590Z,43.20
2019-02-05T07:44:58.579Z,40.30
2019-02-05T07:45:58.568Z,41.10
2019-02-05T07:46:58.555Z,44.60
2019-02-05T07:47:58.543Z,43.10
2019-02-05T07:48:58.535Z,39.40
2019-02-05T07:49:58.521Z,44.90
2019-02-05T07:50:58.516Z,44.10
2019-02-05T07:51:58.498Z,46.20
2019-02-05T07:52:58.489Z,42.30
2019-02-05T07:53:58.586Z,46.30
2019-02-05T07:54:58.468Z,44.40
2019-02-05T07:55:58.469Z,41.60
2019-02-05T07:56:58.446Z,44.90
2019-02-05T07:57:58.434Z,44.10
2019-02-05T07:59:09.576Z,42.70
2019-02-05T07:59:58.409Z,38.10
2019-02-05T08:00:58.403Z,34.40
2019-02-05T08:01:58.389Z,40.00
2019-02-05T08:02:58.383Z,38.10
2019-02-05T08:03:58.366Z,41.40
2019-02-05T08:05:00.734Z,40.10
2019-02-05T08:05:58.345Z,39.20
2019-02-05T08:06:58.336Z,36.00
2019-02-05T08:07:58.464Z,38.10
2019-02-05T08:08:58.565Z,38.40
2019-02-05T08:09:58.303Z,38.90
2019-02-05T08:10:58.293Z,33.20
2019-02-05T08:11:58.280Z,36.80
2019-02-05T08:12:58.272Z,38.40
2019-02-05T08:13:58.259Z,30.10
2019-02-05T08:14:58.251Z,29.70
2019-02-05T08:15:58.267Z,32.10
2019-02-05T08:16:58.230Z,34.50
2019-02-05T08:17:58.217Z,35.30
2019-02-05T08:18:58.209Z,34.30
2019-02-05T08:19:58.194Z,34.30
2019-02-05T08:20:58.208Z,34.90
2019-02-05T08:21:58.174Z,33.90
2019-02-05T08:22:58.167Z,32.40
2019-02-05T08:23:58.246Z,31.50
2019-02-05T08:24:58.147Z,33.20
2019-02-05T08:25:58.131Z,32.50
2019-02-05T08:26:58.124Z,33.20
2019-02-05T08:27:58.111Z,30.20
2019-02-05T08:28:58.104Z,33.50
2019-02-05T08:29:58.090Z,31.60
2019-02-05T08:30:58.084Z,31.00
2019-02-05T08:31:58.069Z,32.30
2019-02-05T08:32:58.061Z,31.10
2019-02-05T08:33:58.051Z,26.70
2019-02-05T08:34:58.042Z,31.10
2019-02-05T08:35:58.027Z,32.40
2019-02-05T08:36:58.019Z,32.40
2019-02-05T08:37:58.014Z,31.10
2019-02-05T08:38:58.001Z,31.10
2019-02-05T08:39:57.988Z,33.60
2019-02-05T08:40:57.976Z,35.10
2019-02-05T08:41:57.967Z,31.80
2019-02-05T08:42:57.956Z,29.00
2019-02-05T08:43:57.945Z,33.20
2019-02-05T08:44:57.934Z,32.00
2019-02-05T08:45:57.923Z,33.70
2019-02-05T08:46:57.915Z,25.10
2019-02-05T08:47:57.899Z,32.30
2019-02-05T08:48:57.892Z,32.90
2019-02-05T08:49:57.879Z,35.20
2019-02-05T08:50:57.871Z,34.60
2019-02-05T08:51:57.944Z,32.50
2019-02-05T08:52:57.848Z,30.10
2019-02-05T08:53:57.841Z,31.50
2019-02-05T08:54:57.830Z,33.50
2019-02-05T08:55:57.815Z,35.90
2019-02-05T08:56:57.805Z,35.40
2019-02-05T08:57:57.792Z,34.50
2019-02-05T08:58:57.785Z,34.70
2019-02-05T08:59:57.770Z,34.00
2019-02-05T09:00:57.765Z,34.50
2019-02-05T09:01:57.751Z,29.60
2019-02-05T09:02:57.744Z,32.60
2019-02-05T09:03:57.732Z,32.20
2019-02-05T09:04:57.723Z,34.40
2019-02-05T09:05:57.708Z,33.70
2019-02-05T09:06:57.707Z,33.20
2019-02-05T09:07:57.686Z,32.10
2019-02-05T09:08:57.680Z,32.10
2019-02-05T09:09:57.916Z,30.50
2019-02-05T09:10:57.658Z,30.80
2019-02-05T09:11:57.645Z,30.10
2019-02-05T09:12:57.639Z,30.20
2019-02-05T09:13:57.630Z,29.60
2019-02-05T09:14:57.616Z,26.10
2019-02-05T09:15:57.605Z,27.40
2019-02-05T09:16:57.596Z,30.20
2019-02-05T09:17:57.582Z,30.40
2019-02-05T09:18:57.587Z,33.30
2019-02-05T09:19:57.561Z,34.50
2019-02-05T09:20:57.553Z,32.80
2019-02-05T09:21:57.540Z,35.10
2019-02-05T09:22:57.630Z,34.50
2019-02-05T09:23:57.527Z,32.50
2019-02-05T09:24:57.511Z,33.20
2019-02-05T09:25:57.498Z,32.40
2019-02-05T09:26:57.490Z,30.90
2019-02-05T09:27:57.477Z,33.70
2019-02-05T09:28:57.474Z,32.20
2019-02-05T09:29:57.457Z,32.70
2019-02-05T09:30:57.449Z,31.90
2019-02-05T09:31:57.437Z,29.60
2019-02-05T09:32:57.434Z,29.40
2019-02-05T09:33:57.417Z,29.60
2019-02-05T09:34:57.409Z,31.00
2019-02-05T09:35:57.395Z,30.10
2019-02-05T09:36:57.389Z,32.40
2019-02-05T09:37:57.978Z,29.90
2019-02-05T09:38:57.368Z,31.20
2019-02-05T09:39:57.605Z,31.70
2019-02-05T09:40:57.349Z,31.20
2019-02-05T09:41:57.335Z,30.10
2019-02-05T09:42:57.329Z,29.40
2019-02-05T09:43:57.318Z,29.50
2019-02-05T09:44:57.609Z,28.10
2019-02-05T09:45:57.295Z,29.40
2019-02-05T09:46:57.289Z,28.50
2019-02-05T09:47:57.278Z,28.80
2019-02-05T09:48:57.272Z,27.50
2019-02-05T09:49:57.262Z,27.70
2019-02-05T09:50:57.253Z,28.20
2019-02-05T09:51:57.237Z,26.60
2019-02-05T09:52:57.230Z,27.40
2019-02-05T09:53:57.218Z,26.40
2019-02-05T09:54:57.210Z,25.10
2019-02-05T09:55:57.197Z,23.80
2019-02-05T09:56:57.190Z,24.20
2019-02-05T09:57:57.180Z,22.60
2019-02-05T09:58:57.173Z,23.80
2019-02-05T09:59:57.159Z,22.90
2019-02-05T10:00:59.682Z,22.20
2019-02-05T10:01:57.145Z,19.80
2019-02-05T10:02:57.133Z,19.80
2019-02-05T10:03:57.120Z,19.50
2019-02-05T10:04:57.115Z,19.40
2019-02-05T10:05:57.101Z,19.80
2019-02-05T10:06:57.096Z,20.70
2019-02-05T10:07:57.082Z,19.60
2019-02-05T10:08:57.076Z,19.70
2019-02-05T10:09:57.064Z,19.10
2019-02-05T10:10:57.057Z,19.10
2019-02-05T10:11:57.044Z,19.60
2019-02-05T10:12:57.037Z,19.90
2019-02-05T10:13:57.024Z,19.90
2019-02-05T10:14:57.018Z,20.20
2019-02-05T10:15:57.306Z,20.00
2019-02-05T10:16:56.998Z,19.60
2019-02-05T10:17:56.986Z,20.00
2019-02-05T10:18:56.980Z,18.60
2019-02-05T10:19:56.966Z,19.50
2019-02-05T10:20:56.960Z,20.20
2019-02-05T10:21:56.948Z,19.10
2019-02-05T10:22:56.943Z,19.30
2019-02-05T10:23:56.928Z,17.30
2019-02-05T10:24:56.922Z,19.30
2019-02-05T10:25:56.910Z,19.70
2019-02-05T10:26:56.904Z,19.40
2019-02-05T10:27:56.893Z,17.70
2019-02-05T10:28:56.906Z,18.80
2019-02-05T10:29:59.597Z,17.90
2019-02-05T10:30:56.867Z,18.20
2019-02-05T10:31:56.851Z,17.30
2019-02-05T10:32:56.844Z,17.30
2019-02-05T10:33:56.832Z,17.40
2019-02-05T10:34:56.826Z,16.90
2019-02-05T10:35:56.813Z,15.90
2019-02-05T10:36:56.807Z,13.70
2019-02-05T10:37:56.794Z,14.40
2019-02-05T10:38:56.788Z,15.90
2019-02-05T10:39:56.775Z,15.40
2019-02-05T10:40:56.769Z,15.00
2019-02-05T10:41:56.756Z,16.00
2019-02-05T10:42:56.750Z,14.90
2019-02-05T10:43:56.736Z,16.00
2019-02-05T10:44:56.729Z,16.60
2019-02-05T10:45:56.717Z,16.70
2019-02-05T10:46:56.712Z,17.20
2019-02-05T10:47:56.698Z,17.10
2019-02-05T10:48:56.692Z,17.60
2019-02-05T10:49:56.687Z,18.20
2019-02-05T10:50:56.679Z,17.40
2019-02-05T10:51:56.661Z,18.60
2019-02-05T10:52:56.655Z,18.50
2019-02-05T10:53:56.641Z,18.80
2019-02-05T10:54:56.634Z,18.30
2019-02-05T10:55:56.632Z,18.80
2019-02-05T10:56:56.616Z,18.10
2019-02-05T10:57:56.603Z,17.90
2019-02-05T10:58:56.603Z,18.60
2019-02-05T11:00:08.057Z,19.50
2019-02-05T11:00:56.589Z,17.80
2019-02-05T11:01:56.566Z,18.10
2019-02-05T11:02:56.667Z,18.90
2019-02-05T11:03:56.547Z,14.00
2019-02-05T11:04:56.540Z,17.10
2019-02-05T11:05:56.528Z,18.70
2019-02-05T11:06:56.521Z,18.60
2019-02-05T11:07:56.509Z,19.30
2019-02-05T11:08:56.502Z,19.40
2019-02-05T11:09:56.491Z,19.50
2019-02-05T11:10:56.484Z,19.50
2019-02-05T11:11:56.471Z,18.90
2019-02-05T11:12:56.465Z,19.90
2019-02-05T11:13:56.470Z,19.80
2019-02-05T11:14:56.448Z,20.10
2019-02-05T11:15:56.435Z,20.10
2019-02-05T11:16:56.427Z,20.80
2019-02-05T11:17:56.415Z,20.70
2019-02-05T11:18:56.410Z,21.50
2019-02-05T11:19:56.396Z,20.70
2019-02-05T11:20:56.391Z,21.30
2019-02-05T11:21:56.378Z,19.50
2019-02-05T11:22:56.374Z,20.10
2019-02-05T11:23:56.363Z,20.50
2019-02-05T11:24:56.354Z,20.50
2019-02-05T11:25:56.344Z,18.60
2019-02-05T11:26:56.336Z,19.20
2019-02-05T11:27:56.334Z,19.00
2019-02-05T11:28:56.317Z,19.70
2019-02-05T11:29:56.305Z,15.70
2019-02-05T11:30:56.298Z,16.40
2019-02-05T11:31:56.286Z,18.00
2019-02-05T11:32:56.280Z,18.40
2019-02-05T11:33:56.268Z,17.80
2019-02-05T11:34:56.261Z,17.70
2019-02-05T11:35:56.255Z,18.40
2019-02-05T11:36:56.243Z,18.30
2019-02-05T11:37:56.231Z,18.90
2019-02-05T11:38:56.226Z,18.70
2019-02-05T11:39:56.211Z,18.50
2019-02-05T11:40:56.204Z,18.30
2019-02-05T11:41:56.194Z,17.10
2019-02-05T11:42:56.187Z,18.20
2019-02-05T11:43:56.175Z,17.40
2019-02-05T11:44:56.168Z,19.30
2019-02-05T11:45:56.156Z,17.80
2019-02-05T11:46:56.154Z,18.30
2019-02-05T11:47:56.142Z,18.30
2019-02-05T11:48:56.133Z,15.80
2019-02-05T11:49:56.120Z,17.90
2019-02-05T11:50:56.112Z,18.40
2019-02-05T11:51:56.099Z,18.20
2019-02-05T11:52:56.096Z,18.70
2019-02-05T11:53:56.081Z,18.30
2019-02-05T11:54:56.076Z,17.60
2019-02-05T11:55:56.062Z,18.20
2019-02-05T11:56:56.055Z,17.70
2019-02-05T11:57:56.044Z,19.30
2019-02-05T11:58:56.039Z,18.50
2019-02-05T11:59:56.025Z,18.90
2019-02-05T12:00:56.019Z,17.30
2019-02-05T12:01:56.007Z,18.60
2019-02-05T12:02:56.001Z,17.70
2019-02-05T12:03:55.989Z,18.80
2019-02-05T12:04:55.978Z,17.90
2019-02-05T12:05:55.972Z,19.00
2019-02-05T12:06:55.960Z,18.60
2019-02-05T12:07:55.953Z,18.50
2019-02-05T12:08:55.941Z,19.20
2019-02-05T12:09:55.938Z,19.20
2019-02-05T12:10:55.923Z,18.20
2019-02-05T12:11:55.915Z,17.50
2019-02-05T12:12:55.931Z,18.70
2019-02-05T12:13:55.899Z,18.10
2019-02-05T12:14:56.137Z,18.90
2019-02-05T12:15:55.879Z,18.10
2019-02-05T12:16:55.868Z,18.20
2019-02-05T12:17:55.862Z,18.40
2019-02-05T12:18:55.850Z,18.60
2019-02-05T12:19:55.879Z,18.00
2019-02-05T12:20:56.131Z,18.70
2019-02-05T12:21:55.827Z,18.50
2019-02-05T12:22:55.813Z,20.00
2019-02-05T12:23:55.806Z,16.10
2019-02-05T12:24:55.795Z,17.00
2019-02-05T12:25:55.798Z,18.60
2019-02-05T12:26:55.777Z,18.40
2019-02-05T12:27:55.770Z,18.30
2019-02-05T12:28:55.759Z,18.00
2019-02-05T12:29:55.752Z,18.10
2019-02-05T12:30:55.747Z,18.70
2019-02-05T12:31:55.744Z,18.00
2019-02-05T12:32:55.722Z,17.40
2019-02-05T12:33:55.715Z,14.60
2019-02-05T12:34:55.704Z,16.70
2019-02-05T12:35:55.697Z,19.00
2019-02-05T12:36:55.684Z,17.90
2019-02-05T12:37:55.677Z,19.20
2019-02-05T12:38:55.667Z,18.70
2019-02-05T12:39:55.659Z,18.80
2019-02-05T12:40:55.647Z,18.90
2019-02-05T12:41:55.641Z,19.10
2019-02-05T12:42:55.628Z,19.00
2019-02-05T12:43:55.620Z,18.60
2019-02-05T12:44:55.610Z,18.40
2019-02-05T12:45:55.603Z,19.10
2019-02-05T12:46:55.609Z,21.80
2019-02-05T12:47:55.584Z,20.50
2019-02-05T12:48:55.573Z,21.40
2019-02-05T12:49:55.566Z,18.90
2019-02-05T12:50:55.554Z,20.30
2019-02-05T12:51:55.553Z,20.30
2019-02-05T12:52:55.537Z,22.00
2019-02-05T12:53:55.530Z,20.70
2019-02-05T12:54:55.519Z,20.20